Time;durP1;ratioP1;P1;durP2;ratioP2;P2;SDS_P1;SDS_P2;PMS_P1;PMS_P2;Temp;Humidity;BMP_temperature;BMP_pressure;BME280_temperature;BME280_humidity;BME280_pressure;Samples;Min_cycle;Max_cycle;Signal;HPM_P1;HPM_P2
2022/05/11 00:00:00;;;;;;;8.48;1.77;;;;;;;16.74;56.33;100171.31;5060859;28;20107;-88
2022/05/11 00:02:25;;;;;;;14.82;2.55;;;;;;;16.61;56.43;100164.56;5052847;28;20107;-88
2022/05/11 00:04:51;;;;;;;13.95;2.10;;;;;;;16.56;56.82;100158.88;5051655;28;20078;-88
2022/05/11 00:07:16;;;;;;;12.45;2.65;;;;;;;16.41;56.94;100153.25;5053149;28;20047;-88
2022/05/11 00:09:41;;;;;;;14.50;2.58;;;;;;;16.31;58.42;100156.91;5053113;28;20025;-88
2022/05/11 00:12:08;;;;;;;12.88;2.33;;;;;;;16.30;58.03;100160.56;5053065;28;20506;-88
2022/05/11 00:14:34;;;;;;;12.15;2.65;;;;;;;16.68;56.89;100156.00;5060428;28;20036;-88
2022/05/11 00:16:59;;;;;;;12.15;2.10;;;;;;;16.72;56.90;100157.38;5073087;28;20028;-88
2022/05/11 00:19:26;;;;;;;14.05;2.58;;;;;;;16.69;57.14;100137.31;5073215;28;20025;-88
2022/05/11 00:21:51;;;;;;;15.30;2.60;;;;;;;16.59;57.85;100140.03;5072190;28;20117;-88
2022/05/11 00:24:16;;;;;;;8.75;1.63;;;;;;;16.61;57.14;100131.94;5073167;28;20546;-88
2022/05/11 00:26:41;;;;;;;14.23;2.22;;;;;;;16.75;56.68;100141.19;5071760;28;20021;-88
2022/05/11 00:29:07;;;;;;;12.05;2.47;;;;;;;16.60;57.20;100130.25;5071870;28;20099;-88
2022/05/11 00:31:32;;;;;;;15.63;1.90;;;;;;;16.63;56.69;100152.00;5072585;28;20073;-88
2022/05/11 00:33:58;;;;;;;10.15;2.35;;;;;;;16.64;57.42;100143.03;5072554;28;20021;-89
2022/05/11 00:36:24;;;;;;;14.60;3.05;;;;;;;16.64;57.96;100142.22;5072803;28;20028;-88
2022/05/11 00:38:50;;;;;;;11.10;1.98;;;;;;;16.50;57.59;100138.25;5072752;28;20024;-88
2022/05/11 00:41:15;;;;;;;13.73;2.20;;;;;;;16.40;57.54;100126.91;5072350;28;20478;-88
2022/05/11 00:43:43;;;;;;;11.93;2.03;;;;;;;16.60;57.30;100135.56;5068624;28;20372;-88
2022/05/11 00:46:17;;;;;;;15.65;2.00;;;;;;;16.55;57.35;100122.75;5052277;28;20032;-88
2022/05/11 00:51:35;;;;;;;15.00;2.63;;;;;;;16.65;57.15;100106.78;5052054;28;20032;-89
2022/05/11 00:54:04;;;;;;;14.20;2.22;;;;;;;16.56;57.54;100108.50;5052010;28;20498;-88
2022/05/11 00:56:31;;;;;;;15.30;2.20;;;;;;;16.47;57.71;100098.81;5052189;28;20108;-88
2022/05/11 00:59:01;;;;;;;12.32;2.38;;;;;;;16.49;58.19;100094.22;5053156;28;20023;-88
2022/05/11 01:01:27;;;;;;;10.73;1.77;;;;;;;16.49;58.15;100096.88;5051998;28;20487;-88
2022/05/11 01:04:02;;;;;;;8.15;1.50;;;;;;;16.48;57.74;100099.66;5052020;28;20116;-88
2022/05/11 01:06:30;;;;;;;15.65;1.92;;;;;;;16.33;58.19;100101.97;5051703;28;20166;-88
2022/05/11 01:08:58;;;;;;;8.48;1.83;;;;;;;16.53;58.23;100103.53;5052062;28;20032;-88
2022/05/11 01:11:23;;;;;;;11.05;2.30;;;;;;;16.42;58.63;100095.78;5051920;28;20025;-88
2022/05/11 01:13:48;;;;;;;12.35;2.05;;;;;;;16.53;58.34;100081.47;5052135;28;20061;-88
2022/05/11 01:16:14;;;;;;;10.25;1.88;;;;;;;16.49;58.69;100080.09;5072154;28;20028;-88
2022/05/11 01:18:40;;;;;;;8.95;2.25;;;;;;;16.55;58.72;100074.22;5071688;28;20039;-87
2022/05/11 01:21:07;;;;;;;11.10;2.40;;;;;;;16.52;58.59;100071.88;5071800;28;20104;-88
2022/05/11 01:23:43;;;;;;;11.20;2.35;;;;;;;16.46;59.27;100086.53;5071984;28;20031;-88
2022/05/11 01:26:08;;;;;;;11.82;2.80;;;;;;;16.43;59.22;100086.88;5071739;28;20029;-88
2022/05/11 01:28:40;;;;;;;11.52;2.17;;;;;;;16.49;59.37;100086.25;5071379;28;20051;-88
2022/05/11 01:31:08;;;;;;;15.85;2.42;;;;;;;16.44;59.65;100085.88;5070268;28;20025;-88
2022/05/11 01:33:35;;;;;;;11.80;2.05;;;;;;;16.52;59.75;100091.25;5072386;28;20406;-88
2022/05/11 01:36:09;;;;;;;15.27;2.97;;;;;;;16.63;59.67;100090.22;5076195;28;20032;-88
2022/05/11 01:38:47;;;;;;;14.82;2.08;;;;;;;16.51;60.14;100080.78;5076236;28;20035;-88
2022/05/11 01:41:15;;;;;;;11.90;1.98;;;;;;;16.49;60.07;100083.63;5075781;28;20028;-89
2022/05/11 01:43:41;;;;;;;5.07;1.48;;;;;;;16.59;60.38;100071.13;5075860;28;20052;-88
2022/05/11 01:46:08;;;;;;;10.07;2.20;;;;;;;16.56;60.65;100059.97;5056165;28;20431;-88
2022/05/11 01:48:34;;;;;;;16.25;2.55;;;;;;;16.52;60.08;100054.13;5055446;28;20052;-88
2022/05/11 01:51:00;;;;;;;13.40;2.40;;;;;;;16.64;59.94;100047.63;5055342;28;20475;-88
2022/05/11 01:53:25;;;;;;;11.30;2.50;;;;;;;16.66;59.99;100053.59;5055706;28;20382;-88
2022/05/11 01:55:51;;;;;;;10.05;2.15;;;;;;;16.61;60.39;100047.94;5055654;28;20080;-89
2022/05/11 01:58:17;;;;;;;13.05;2.38;;;;;;;16.58;60.83;100052.72;5055553;28;20017;-88
2022/05/11 02:00:45;;;;;;;11.60;3.05;;;;;;;16.53;60.92;100045.22;5072923;28;20037;-88
2022/05/11 02:03:11;;;;;;;14.00;2.63;;;;;;;16.55;60.95;100060.97;5075242;28;20028;-88
2022/05/11 02:08:20;;;;;;;10.75;2.15;;;;;;;16.37;61.42;100045.03;5075638;28;20082;-88
2022/05/11 02:10:46;;;;;;;14.32;2.88;;;;;;;16.43;61.24;100039.16;5073859;28;20032;-88
2022/05/11 02:13:11;;;;;;;10.00;2.30;;;;;;;16.51;61.27;100052.50;5074850;28;20067;-88
2022/05/11 02:15:37;;;;;;;12.95;2.17;;;;;;;16.39;61.75;100054.53;5056489;28;20029;-88
2022/05/11 02:18:03;;;;;;;10.07;2.28;;;;;;;16.30;62.24;100059.91;5053930;28;20028;-88
2022/05/11 02:20:29;;;;;;;10.50;2.15;;;;;;;16.26;62.07;100054.06;5055219;28;20032;-88
2022/05/11 02:22:54;;;;;;;13.60;2.47;;;;;;;16.32;62.45;100048.16;5056067;28;20029;-88
2022/05/11 02:25:20;;;;;;;13.68;2.30;;;;;;;16.39;62.55;100046.59;5053825;28;20025;-88
2022/05/11 02:27:48;;;;;;;11.52;2.20;;;;;;;16.15;63.40;100041.00;5054981;28;20055;-88
2022/05/11 02:30:20;;;;;;;13.70;2.67;;;;;;;16.13;63.46;100035.84;5054942;28;20104;-88
2022/05/11 02:32:46;;;;;;;15.48;2.53;;;;;;;16.22;64.08;100032.31;5055654;28;20055;-88
2022/05/11 02:35:14;;;;;;;12.90;2.20;;;;;;;16.16;63.75;100043.53;5054850;28;20430;-88
2022/05/11 02:37:53;;;;;;;14.02;2.65;;;;;;;15.98;65.23;100045.31;5054783;28;20057;-88
2022/05/11 02:40:26;;;;;;;8.80;2.38;;;;;;;15.93;63.97;100040.44;5054813;28;20083;-88
2022/05/11 02:42:52;;;;;;;13.82;2.65;;;;;;;15.92;64.28;100019.44;5054617;28;20025;-89
2022/05/11 02:45:18;;;;;;;9.63;2.33;;;;;;;16.14;63.73;100013.69;5053963;28;20433;-88
2022/05/11 02:47:44;;;;;;;11.70;2.80;;;;;;;16.15;64.02;100028.63;5073323;28;20046;-88
2022/05/11 02:50:13;;;;;;;15.15;2.38;;;;;;;16.10;64.20;100030.06;5073260;28;20028;-88
2022/05/11 02:52:39;;;;;;;15.10;2.60;;;;;;;16.19;63.98;100016.75;5074242;28;20042;-89
2022/05/11 02:55:05;;;;;;;15.57;3.17;;;;;;;15.91;65.41;100020.41;5072931;28;20385;-88
2022/05/11 02:57:30;;;;;;;22.95;2.97;;;;;;;15.91;65.37;100015.09;5074137;28;20074;-88
2022/05/11 02:59:58;;;;;;;11.82;2.88;;;;;;;16.12;64.54;100002.44;5073114;28;20020;-88
2022/05/11 03:02:23;;;;;;;17.27;3.13;;;;;;;15.99;65.02;99996.66;5072869;28;20036;-88
2022/05/11 03:04:49;;;;;;;20.73;4.05;;;;;;;16.12;64.35;100001.59;5074461;28;20028;-88
2022/05/11 03:07:14;;;;;;;15.02;2.42;;;;;;;16.11;64.64;99992.81;5072311;28;20029;-88
2022/05/11 03:09:40;;;;;;;14.88;2.45;;;;;;;16.17;64.23;99994.88;5073970;28;20054;-88
2022/05/11 03:12:06;;;;;;;11.60;2.45;;;;;;;16.15;64.89;99993.34;5073825;28;20398;-88
2022/05/11 03:14:32;;;;;;;16.30;3.22;;;;;;;16.17;64.63;99997.53;5089577;28;20409;-88
2022/05/11 03:16:57;;;;;;;12.02;2.58;;;;;;;16.20;65.00;100005.16;5074106;28;20139;-89
2022/05/11 03:19:23;;;;;;;12.52;2.47;;;;;;;16.20;64.67;100001.69;5089787;28;20020;-89
2022/05/11 03:21:48;;;;;;;19.77;2.95;;;;;;;16.26;64.08;100007.19;5067249;28;20103;-89
2022/05/11 03:24:14;;;;;;;10.98;2.03;;;;;;;16.19;64.67;99984.09;5056169;28;20379;-88
2022/05/11 03:26:39;;;;;;;8.35;1.77;;;;;;;16.32;64.45;99995.16;5073562;28;20027;-88
2022/05/11 03:29:05;;;;;;;15.52;2.75;;;;;;;16.42;64.29;99993.25;5072456;28;20025;-89
2022/05/11 03:31:33;;;;;;;8.00;1.95;;;;;;;16.19;64.90;99986.75;5071981;28;20027;-88
2022/05/11 03:36:42;;;;;;;8.88;2.45;;;;;;;16.00;65.15;99971.84;5073959;28;20036;-88
2022/05/11 03:39:08;;;;;;;11.23;2.08;;;;;;;16.02;65.62;99973.38;5072910;28;20029;-89
2022/05/11 03:41:33;;;;;;;15.60;2.85;;;;;;;15.78;65.91;99976.59;5073153;28;20029;-89
2022/05/11 03:43:58;;;;;;;12.52;2.33;;;;;;;15.83;65.98;99963.72;5073068;28;20028;-89
2022/05/11 03:46:24;;;;;;;14.07;2.33;;;;;;;15.84;65.88;99959.28;5073424;28;20039;-88
2022/05/11 03:48:49;;;;;;;9.10;1.95;;;;;;;15.91;66.15;99964.81;5073183;28;20478;-88
2022/05/11 03:51:14;;;;;;;20.33;3.08;;;;;;;15.80;66.67;99957.91;5073521;28;20410;-89
2022/05/11 03:53:40;;;;;;;12.27;2.03;;;;;;;15.89;66.21;99950.88;5071628;28;20031;-89
2022/05/11 03:56:05;;;;;;;18.55;2.70;;;;;;;15.90;66.06;99952.56;5070643;28;20036;-88
2022/05/11 03:58:31;;;;;;;11.10;2.67;;;;;;;15.92;66.43;99942.66;5073210;28;20078;-89
2022/05/11 04:00:56;;;;;;;14.63;3.03;;;;;;;15.91;66.80;99941.78;5071753;28;20016;-88
2022/05/11 04:03:22;;;;;;;12.05;3.25;;;;;;;15.89;66.96;99943.75;5072900;28;20048;-89
2022/05/11 04:05:47;;;;;;;22.10;2.78;;;;;;;15.67;67.77;99926.47;5072873;28;20105;-89
2022/05/11 04:08:12;;;;;;;13.52;3.08;;;;;;;15.77;67.89;99921.97;5072866;28;20107;-88
2022/05/11 04:10:38;;;;;;;12.77;2.50;;;;;;;15.82;67.96;99932.94;5060454;28;20107;-89
2022/05/11 04:13:04;;;;;;;14.27;2.83;;;;;;;15.94;66.78;99932.75;5052596;28;20033;-89
2022/05/11 04:15:30;;;;;;;11.27;2.03;;;;;;;15.85;67.02;99918.56;5052758;28;20025;-89
2022/05/11 04:17:56;;;;;;;15.35;2.75;;;;;;;15.95;66.73;99921.97;5052748;28;20402;-88
2022/05/11 04:20:22;;;;;;;11.82;2.45;;;;;;;15.99;67.47;99917.22;5052608;28;20029;-88
2022/05/11 04:22:47;;;;;;;10.85;2.50;;;;;;;16.01;67.06;99907.31;5052679;28;20056;-89
2022/05/11 04:25:15;;;;;;;16.92;2.00;;;;;;;15.91;66.88;99917.16;5062573;28;20379;-88
2022/05/11 04:27:42;;;;;;;14.50;2.58;;;;;;;15.96;67.57;99914.88;5071284;28;20170;-88
2022/05/11 04:30:08;;;;;;;8.98;2.13;;;;;;;15.92;67.75;99913.53;5072354;28;20020;-88
2022/05/11 04:32:33;;;;;;;12.43;2.70;;;;;;;15.95;67.94;99913.22;5072357;28;20029;-88
2022/05/11 04:34:58;;;;;;;10.63;1.92;;;;;;;16.02;67.73;99924.88;5072699;28;20021;-88
2022/05/11 04:37:24;;;;;;;11.82;1.77;;;;;;;15.95;68.07;99914.03;5072496;28;20429;-88
2022/05/11 04:39:49;;;;;;;16.10;2.40;;;;;;;15.83;67.84;99900.19;5070616;28;20032;-88
2022/05/11 04:42:15;;;;;;;11.13;3.45;;;;;;;15.93;68.06;99912.53;5072359;28;20044;-88
2022/05/11 04:44:40;;;;;;;10.43;2.15;;;;;;;15.94;68.16;99911.56;5072328;28;20020;-88
2022/05/11 04:47:07;;;;;;;14.57;2.42;;;;;;;15.80;68.18;99908.44;5072155;28;20116;-88
2022/05/11 04:49:33;;;;;;;14.82;3.63;;;;;;;15.91;68.51;99914.50;5072207;28;20270;-88
2022/05/11 04:52:02;;;;;;;13.77;2.78;;;;;;;15.69;68.32;99911.28;5070955;28;20023;-88
2022/05/11 04:54:27;;;;;;;14.35;2.47;;;;;;;15.85;68.12;99907.97;5070784;28;20029;-88
2022/05/11 04:56:52;;;;;;;14.15;2.50;;;;;;;15.67;68.24;99910.59;5072239;28;20352;-88
2022/05/11 04:59:18;;;;;;;9.25;2.00;;;;;;;15.80;68.19;99904.97;5071968;28;20064;-88
2022/05/11 05:01:45;;;;;;;16.02;2.60;;;;;;;15.85;68.00;99906.16;5072015;28;20063;-88
2022/05/11 05:04:10;;;;;;;12.27;2.47;;;;;;;15.81;68.23;99907.44;5070643;28;20457;-88
2022/05/11 05:06:36;;;;;;;11.82;2.05;;;;;;;15.89;68.50;99909.34;5072026;28;20107;-88
2022/05/11 05:09:03;;;;;;;13.88;2.33;;;;;;;15.99;67.63;99898.69;5072004;28;20073;-88
2022/05/11 05:11:29;;;;;;;17.33;2.47;;;;;;;16.02;67.89;99893.91;5068593;28;20025;-88
2022/05/11 05:13:55;;;;;;;14.00;3.63;;;;;;;15.95;68.31;99892.84;5051863;28;20024;-88
2022/05/11 05:16:21;;;;;;;8.60;2.33;;;;;;;15.96;68.02;99897.19;5052814;28;20029;-88
2022/05/11 05:18:46;;;;;;;17.30;2.80;;;;;;;15.83;68.86;99905.47;5060217;28;20031;-87
2022/05/11 05:21:11;;;;;;;18.55;3.80;;;;;;;15.95;69.10;99890.19;5076495;28;20028;-87
2022/05/11 05:23:37;;;;;;;11.82;2.63;;;;;;;16.04;67.94;99889.31;5085294;28;20107;-87
2022/05/11 05:26:03;;;;;;;16.65;3.03;;;;;;;16.04;68.40;99891.13;5084670;28;20032;-88
2022/05/11 05:31:16;;;;;;;10.95;3.17;;;;;;;16.06;68.55;99886.50;5071759;28;20062;-88
2022/05/11 05:33:42;;;;;;;13.35;2.35;;;;;;;16.09;68.24;99880.88;5064573;28;20418;-87
2022/05/11 05:36:09;;;;;;;14.27;2.55;;;;;;;16.15;68.38;99892.69;5051589;28;20033;-87
2022/05/11 05:38:38;;;;;;;9.93;2.40;;;;;;;16.13;68.54;99879.59;5060189;28;20024;-88
2022/05/11 05:41:03;;;;;;;13.05;2.13;;;;;;;16.22;68.76;99884.00;5071367;28;20024;-88
2022/05/11 05:43:29;;;;;;;11.85;2.92;;;;;;;16.21;68.30;99885.00;5071612;28;20029;-87
2022/05/11 05:45:55;;;;;;;12.95;2.38;;;;;;;16.24;68.67;99871.41;5071700;28;20029;-87
2022/05/11 05:48:21;;;;;;;13.73;2.58;;;;;;;16.25;69.04;99874.88;5070177;28;20449;-88
2022/05/11 05:50:47;;;;;;;22.60;2.95;;;;;;;16.13;69.35;99854.94;5071051;28;20059;-87
2022/05/11 05:53:14;;;;;;;18.20;2.97;;;;;;;16.22;69.33;99865.44;5071100;28;20064;-88
2022/05/11 05:55:41;;;;;;;17.95;3.28;;;;;;;16.23;69.09;99859.19;5070271;28;20193;-88
2022/05/11 05:58:06;;;;;;;17.33;4.30;;;;;;;16.03;69.33;99857.66;5069709;28;20073;-87
2022/05/11 06:00:32;;;;;;;23.10;3.65;;;;;;;16.07;69.64;99859.03;5071509;28;20024;-86
2022/05/11 06:02:57;;;;;;;16.73;4.35;;;;;;;16.08;69.94;99850.13;5069987;28;20020;-87
2022/05/11 06:05:23;;;;;;;18.40;3.40;;;;;;;15.98;70.56;99836.97;5071282;28;20028;-85
2022/05/11 06:07:49;;;;;;;21.70;3.22;;;;;;;16.00;70.79;99850.06;5071047;28;20482;-87
2022/05/11 06:10:14;;;;;;;14.60;3.17;;;;;;;16.19;70.51;99846.38;5071100;28;20098;-86
2022/05/11 06:12:39;;;;;;;16.98;3.15;;;;;;;16.17;70.61;99837.75;5070940;28;20037;-87
2022/05/11 06:15:06;;;;;;;14.80;3.40;;;;;;;16.17;70.71;99841.25;5058404;28;20025;-85
2022/05/11 06:17:32;;;;;;;26.92;4.45;;;;;;;16.01;71.10;99838.47;5060068;28;20048;-86
2022/05/11 06:19:58;;;;;;;16.33;3.33;;;;;;;15.87;72.04;99831.88;5072056;28;20032;-85
2022/05/11 06:22:24;;;;;;;18.15;3.78;;;;;;;15.83;72.01;99836.66;5073544;28;20028;-85
2022/05/11 06:24:50;;;;;;;11.38;2.80;;;;;;;16.06;70.90;99815.00;5068270;28;20546;-86
2022/05/11 06:27:20;;;;;;;21.15;4.47;;;;;;;16.01;71.16;99817.28;5054506;28;20028;-85
2022/05/11 06:29:54;;;;;;;26.00;3.53;;;;;;;16.06;71.48;99817.66;5074313;28;20031;-86
2022/05/11 06:32:19;;;;;;;18.05;2.97;;;;;;;15.99;71.43;99824.53;5073566;28;20066;-86
2022/05/11 06:34:46;;;;;;;22.52;4.03;;;;;;;16.05;71.78;99831.88;5055443;28;20437;-86
2022/05/11 06:37:12;;;;;;;30.27;4.68;;;;;;;15.84;72.35;99814.50;5062401;28;20020;-86
2022/05/11 06:39:37;;;;;;;22.65;3.17;;;;;;;15.85;71.80;99804.75;5073988;28;20017;-87
2022/05/11 06:42:12;;;;;;;21.48;4.40;;;;;;;15.91;72.99;99808.59;5078908;28;20090;-85
2022/05/11 06:44:37;;;;;;;15.75;3.58;;;;;;;16.19;72.00;99799.56;5073957;28;20020;-84
2022/05/11 06:47:03;;;;;;;24.27;3.67;;;;;;;15.93;72.34;99801.34;5074143;28;20428;-84
2022/05/11 06:49:29;;;;;;;31.30;3.60;;;;;;;15.93;72.62;99809.28;5071866;28;20098;-85
2022/05/11 06:51:54;;;;;;;18.55;4.47;;;;;;;16.17;72.40;99808.63;5073654;28;20470;-85
2022/05/11 06:59:47;;;;;;;18.83;3.33;;;;;;;15.97;73.01;99815.91;5074031;28;20031;-85
2022/05/11 07:02:13;;;;;;;26.38;3.88;;;;;;;16.16;72.54;99818.38;5072623;28;20036;-85
2022/05/11 07:04:38;;;;;;;27.52;5.22;;;;;;;16.21;72.33;99808.19;5073678;28;20021;-84
2022/05/11 07:07:05;;;;;;;20.02;3.30;;;;;;;16.23;72.40;99803.56;5072628;28;20059;-85
2022/05/11 07:09:33;;;;;;;23.63;4.47;;;;;;;16.22;71.98;99806.34;5071252;28;20060;-84
2022/05/11 07:12:21;;;;;;;22.52;3.85;;;;;;;16.22;72.38;99798.41;5072534;28;20116;-85
2022/05/11 07:14:53;;;;;;;34.90;5.63;;;;;;;15.98;73.16;99785.81;5072376;28;20070;-85
2022/05/11 07:17:24;;;;;;;24.90;4.15;;;;;;;16.21;72.56;99781.69;5070927;28;20029;-86
2022/05/11 07:19:49;;;;;;;33.95;4.47;;;;;;;15.95;73.63;99780.81;5071419;28;20036;-85
2022/05/11 07:22:15;;;;;;;20.55;3.92;;;;;;;15.97;72.79;99769.09;5070623;28;20088;-85
2022/05/11 07:24:43;;;;;;;24.90;4.78;;;;;;;16.07;72.85;99784.88;5071871;28;20032;-85
2022/05/11 07:27:09;;;;;;;24.02;3.92;;;;;;;15.81;72.55;99790.16;5072118;28;20131;-85
2022/05/11 07:29:34;;;;;;;22.95;3.72;;;;;;;15.63;74.59;99782.19;5072871;28;20033;-83
2022/05/11 07:32:00;;;;;;;24.15;4.03;;;;;;;15.66;73.57;99774.78;5072388;28;20119;-84
2022/05/11 07:34:25;;;;;;;33.35;5.15;;;;;;;15.45;74.35;99775.09;5071217;28;20016;-84
2022/05/11 07:36:54;;;;;;;20.95;4.60;;;;;;;15.78;74.01;99780.72;5062534;28;20029;-85
2022/05/11 07:39:23;;;;;;;22.23;3.90;;;;;;;15.40;74.89;99771.22;5072775;28;20031;-85
2022/05/11 07:41:49;;;;;;;21.90;3.97;;;;;;;15.90;74.00;99776.00;5071620;28;20028;-85
2022/05/11 07:44:15;;;;;;;17.60;3.95;;;;;;;15.81;74.04;99777.75;5071983;28;20395;-85
2022/05/11 07:46:41;;;;;;;29.05;5.00;;;;;;;15.64;74.07;99765.34;5075768;28;20447;-85
2022/05/11 07:49:07;;;;;;;19.75;3.78;;;;;;;15.55;75.38;99761.78;5076489;28;20050;-85
2022/05/11 07:51:32;;;;;;;24.58;5.20;;;;;;;15.79;74.34;99745.31;5060556;28;20057;-85
2022/05/11 07:53:58;;;;;;;27.95;4.70;;;;;;;15.88;74.19;99748.84;5056637;28;20082;-85
2022/05/11 08:01:52;;;;;;;31.02;5.93;;;;;;;15.54;75.84;99754.84;5054595;28;20051;-86
2022/05/11 08:04:17;;;;;;;18.10;4.07;;;;;;;16.06;73.83;99756.75;5053139;28;20459;-85
2022/05/11 08:06:42;;;;;;;17.85;4.55;;;;;;;15.59;75.37;99760.50;5066142;28;20025;-85
2022/05/11 08:09:08;;;;;;;15.07;3.97;;;;;;;15.73;73.77;99761.81;5073758;28;20025;-85
2022/05/11 08:11:33;;;;;;;16.35;3.60;;;;;;;16.01;73.50;99757.19;5073207;28;20379;-85
2022/05/11 08:13:58;;;;;;;17.23;4.05;;;;;;;15.79;74.21;99765.66;5073234;28;20033;-85
2022/05/11 08:16:26;;;;;;;16.48;4.13;;;;;;;16.17;72.95;99753.84;5073183;28;20040;-85
2022/05/11 08:18:51;;;;;;;19.60;3.65;;;;;;;15.61;73.77;99755.06;5072905;28;20123;-85
2022/05/11 08:21:19;;;;;;;15.35;3.72;;;;;;;15.91;73.27;99753.81;5060531;28;20534;-85
2022/05/11 08:23:44;;;;;;;30.90;4.30;;;;;;;15.69;74.53;99759.59;5053669;28;20037;-85
2022/05/11 08:26:09;;;;;;;24.73;4.32;;;;;;;15.82;73.23;99739.72;5052760;28;20451;-85
2022/05/11 08:28:35;;;;;;;15.95;4.20;;;;;;;16.07;73.13;99747.81;5052808;28;20028;-85
2022/05/11 08:33:58;;;;;;;20.00;4.70;;;;;;;15.74;74.24;99736.16;5040535;28;20487;-85
2022/05/11 08:36:25;;;;;;;23.83;3.67;;;;;;;15.44;74.62;99746.13;5053415;28;20074;-85
2022/05/11 08:38:56;;;;;;;21.52;4.40;;;;;;;15.60;75.19;99743.66;5052654;28;20033;-85
2022/05/11 08:41:32;;;;;;;17.10;3.92;;;;;;;15.54;75.44;99741.63;5052310;28;20025;-84
2022/05/11 08:44:05;;;;;;;17.63;3.90;;;;;;;15.45;77.07;99743.34;5051851;28;20032;-84
2022/05/11 08:46:56;;;;;;;19.25;4.32;;;;;;;16.05;74.61;99733.88;5052375;28;20029;-84
2022/05/11 08:49:40;;;;;;;22.95;4.35;;;;;;;15.83;75.51;99729.94;5050981;28;20025;-84
2022/05/11 08:52:15;;;;;;;16.27;3.75;;;;;;;15.93;74.81;99724.56;5053439;28;20033;-84
2022/05/11 08:54:49;;;;;;;19.58;4.38;;;;;;;16.19;74.17;99725.41;5052624;28;20021;-84
2022/05/11 08:57:18;;;;;;;22.90;3.92;;;;;;;16.31;74.45;99727.75;5050963;28;20048;-84
2022/05/11 08:59:45;;;;;;;20.02;4.32;;;;;;;15.84;75.02;99718.38;5050823;28;20025;-84
2022/05/11 09:02:28;;;;;;;11.70;3.58;;;;;;;16.06;75.58;99719.69;5052068;28;20036;-84
2022/05/11 09:04:59;;;;;;;28.30;6.07;;;;;;;16.18;74.95;99721.06;5052101;28;20020;-84
2022/05/11 09:07:27;;;;;;;25.53;3.93;;;;;;;15.66;77.21;99721.88;5070699;28;20394;-84
2022/05/11 09:09:53;;;;;;;21.08;4.55;;;;;;;15.82;77.57;99718.53;5071925;28;20167;-84
2022/05/11 09:12:19;;;;;;;23.92;4.57;;;;;;;16.36;75.10;99717.53;5071400;28;20039;-84
2022/05/11 09:14:53;;;;;;;23.65;5.18;;;;;;;16.11;76.37;99727.97;5071993;28;20098;-84
2022/05/11 09:17:42;;;;;;;23.52;4.03;;;;;;;16.23;75.91;99718.78;5070319;28;20493;-84
2022/05/11 09:20:11;;;;;;;17.58;4.13;;;;;;;16.08;77.86;99720.34;5068797;28;20626;-85
2022/05/11 09:23:02;;;;;;;18.77;4.25;;;;;;;16.24;77.99;99723.09;5071498;28;20154;-84
2022/05/11 09:25:33;;;;;;;17.65;4.38;;;;;;;15.99;78.76;99705.41;5071820;28;20025;-84
2022/05/11 09:28:22;;;;;;;29.63;6.38;;;;;;;16.33;77.98;99709.88;5071432;28;20036;-84
2022/05/11 09:31:13;;;;;;;18.90;4.32;;;;;;;15.99;79.72;99708.03;5071485;28;20037;-85
2022/05/11 09:34:04;;;;;;;28.20;5.93;;;;;;;15.91;81.30;99708.00;5071919;28;20057;-85
2022/05/11 09:36:42;;;;;;;22.65;4.07;;;;;;;16.13;80.27;99709.28;5060348;28;20036;-84
2022/05/11 09:39:14;;;;;;;20.20;4.45;;;;;;;16.19;80.56;99704.19;5051513;28;20040;-85
2022/05/11 09:41:42;;;;;;;20.88;4.95;;;;;;;16.27;80.28;99695.44;5051476;28;20029;-84
2022/05/11 09:44:37;;;;;;;15.75;3.85;;;;;;;16.39;78.52;99698.63;5051665;28;20037;-84
2022/05/11 09:47:23;;;;;;;14.82;3.85;;;;;;;16.55;78.57;99688.13;5051463;28;20033;-84
2022/05/11 09:49:48;;;;;;;16.33;3.80;;;;;;;16.57;78.61;99691.44;5051539;28;20421;-85
2022/05/11 09:52:27;;;;;;;25.95;4.85;;;;;;;16.65;77.90;99680.88;5070654;28;20035;-85
2022/05/11 09:54:52;;;;;;;13.07;3.67;;;;;;;16.59;79.17;99692.09;5071405;28;20484;-84
2022/05/11 09:57:20;;;;;;;15.82;3.63;;;;;;;16.30;81.31;99691.66;5075169;28;20111;-85
2022/05/11 09:59:51;;;;;;;17.45;4.32;;;;;;;16.55;80.26;99680.19;5075108;28;20024;-85
2022/05/11 10:02:42;;;;;;;16.35;3.70;;;;;;;16.14;83.04;99695.88;5075219;28;20501;-85
2022/05/11 10:05:47;;;;;;;12.32;4.45;;;;;;;16.73;79.04;99690.66;5074696;28;20037;-85
2022/05/11 10:08:34;;;;;;;17.70;4.53;;;;;;;16.59;80.71;99688.63;5074929;28;20032;-84
2022/05/11 10:11:18;;;;;;;16.52;3.53;;;;;;;16.83;78.57;99672.00;5075216;28;20055;-84
2022/05/11 10:14:00;;;;;;;18.20;3.83;;;;;;;17.14;76.50;99681.97;5075093;28;20529;-84
2022/05/11 10:22:25;;;;;;;11.98;3.25;;;;;;;17.15;76.64;99663.25;5072845;28;20493;-85
2022/05/11 10:25:19;;;;;;;10.23;2.90;;;;;;;16.70;80.23;99675.06;5074395;28;20029;-85
2022/05/11 10:28:09;;;;;;;10.65;3.10;;;;;;;16.60;80.64;99659.31;5074686;28;20029;-84
2022/05/11 10:30:47;;;;;;;10.73;2.97;;;;;;;16.74;80.33;99659.66;5073766;28;20062;-84
2022/05/11 10:33:46;;;;;;;6.82;2.55;;;;;;;16.49;81.49;99670.22;5078753;28;20028;-83
2022/05/11 10:36:46;;;;;;;12.25;4.13;;;;;;;16.79;79.79;99667.97;5055702;28;20395;-83
2022/05/11 10:39:31;;;;;;;7.82;2.30;;;;;;;16.80;80.73;99662.50;5071052;28;20025;-83
2022/05/11 10:42:10;;;;;;;10.52;3.13;;;;;;;16.76;80.07;99665.63;5074205;28;20016;-83
2022/05/11 10:44:41;;;;;;;7.43;1.90;;;;;;;16.71;82.53;99660.00;5074368;28;20020;-83
2022/05/11 10:47:44;;;;;;;11.18;2.40;;;;;;;16.79;82.43;99662.69;5074340;28;20035;-83
2022/05/11 10:50:36;;;;;;;12.32;2.22;;;;;;;16.69;81.47;99660.16;5069114;28;20029;-83
2022/05/11 10:53:19;;;;;;;10.57;2.75;;;;;;;16.55;83.38;99656.31;5054022;28;20264;-83
2022/05/11 10:56:26;;;;;;;14.88;3.03;;;;;;;16.56;84.00;99647.38;5054342;28;20017;-83
2022/05/11 10:59:00;;;;;;;8.88;2.25;;;;;;;16.99;82.83;99648.16;5046814;28;20453;-83
2022/05/11 11:01:37;;;;;;;9.60;2.40;;;;;;;16.98;81.69;99670.38;5053937;28;20028;-82
2022/05/11 11:04:21;;;;;;;8.23;2.58;;;;;;;17.13;81.31;99659.94;5053848;28;20087;-82
2022/05/11 11:07:11;;;;;;;10.00;1.95;;;;;;;16.62;83.63;99644.06;5053525;28;20032;-82
2022/05/11 11:09:55;;;;;;;8.05;2.28;;;;;;;17.07;81.59;99651.81;5066699;28;20089;-83
2022/05/11 11:12:53;;;;;;;12.68;3.47;;;;;;;16.73;83.18;99652.72;5073781;28;20081;-83
2022/05/11 11:15:26;;;;;;;7.82;2.05;;;;;;;17.02;82.81;99654.94;5051937;28;20410;-83
2022/05/11 11:17:54;;;;;;;12.20;3.15;;;;;;;17.26;80.16;99646.19;5074018;28;20400;-83
2022/05/11 11:20:21;;;;;;;12.95;2.50;;;;;;;17.10;82.01;99657.63;5058384;28;20695;-83
2022/05/11 11:23:03;;;;;;;7.28;2.33;;;;;;;17.11;83.33;99655.78;5063032;28;20025;-83
2022/05/11 11:25:47;;;;;;;8.18;2.70;;;;;;;17.00;82.74;99656.91;5073317;28;20024;-83
2022/05/11 11:28:16;;;;;;;11.68;2.75;;;;;;;17.43;80.95;99655.78;5068540;28;20055;-83
2022/05/11 11:30:57;;;;;;;10.02;3.25;;;;;;;17.00;83.12;99660.44;5059648;28;20028;-83
2022/05/11 11:33:24;;;;;;;;;;;;;;;16.98;83.67;99641.19;5075294;28;20066;-83
2022/05/11 11:35:57;;;;;;;6.57;2.30;;;;;;;16.99;83.32;99653.44;5070850;28;19916;-83
2022/05/11 11:38:43;;;;;;;7.25;2.50;;;;;;;17.38;80.94;99642.19;5070669;28;20352;-84
2022/05/11 11:41:09;;;;;;;7.68;2.80;;;;;;;17.42;80.15;99656.78;5072829;28;20070;-84
2022/05/11 11:43:45;;;;;;;13.27;4.00;;;;;;;18.01;76.76;99645.09;5072150;28;20028;-84
2022/05/11 11:46:31;;;;;;;10.50;2.40;;;;;;;17.49;79.70;99658.75;5073447;28;20064;-84
2022/05/11 11:49:07;;;;;;;9.82;2.40;;;;;;;17.24;81.08;99678.19;5069463;28;20074;-83
2022/05/11 11:51:56;;;;;;;6.43;1.67;;;;;;;17.28;80.66;99688.44;5072975;28;20016;-83
2022/05/11 11:54:37;;;;;;;5.43;1.50;;;;;;;17.39;80.26;99699.56;5062590;28;20118;-83
2022/05/11 11:57:22;;;;;;;3.97;0.90;;;;;;;17.45;77.80;99706.84;5054640;28;20537;-83
2022/05/11 11:59:50;;;;;;;5.32;0.80;;;;;;;17.08;79.81;99709.16;5048138;28;20479;-83
2022/05/11 12:02:18;;;;;;;1.95;0.57;;;;;;;17.45;79.30;99698.91;5066101;28;20393;-83
2022/05/11 12:04:53;;;;;;;2.35;0.68;;;;;;;17.50;79.46;99697.59;5072441;28;20029;-83
2022/05/11 12:16:13;;;;;;;2.17;0.68;;;;;;;18.91;72.23;99702.34;5052700;28;20044;-83